createdAt,value
2023-03-19T00:00:33.955Z,34.97
2023-03-19T00:03:00.664Z,28.40
2023-03-19T00:05:27.280Z,32.90
2023-03-19T00:07:53.937Z,33.23
2023-03-19T00:10:20.581Z,33.33
2023-03-19T00:12:47.418Z,31.40
2023-03-19T00:15:15.292Z,33.73
2023-03-19T00:17:43.079Z,32.00
2023-03-19T00:20:11.857Z,34.87
2023-03-19T00:22:39.909Z,31.27
2023-03-19T00:25:08.309Z,29.53
2023-03-19T00:27:35.315Z,32.47
2023-03-19T00:30:02.896Z,31.20
2023-03-19T00:32:30.038Z,31.23
2023-03-19T00:34:56.678Z,31.53
2023-03-19T00:37:23.403Z,31.97
2023-03-19T00:39:50.257Z,29.63
2023-03-19T00:42:16.751Z,34.00
2023-03-19T00:44:43.288Z,32.97
2023-03-19T00:47:09.896Z,34.43
2023-03-19T00:49:36.853Z,34.17
2023-03-19T00:52:04.253Z,33.97
2023-03-19T00:54:32.393Z,32.00
2023-03-19T00:56:59.350Z,31.60
2023-03-19T00:59:26.291Z,31.67
2023-03-19T01:01:52.858Z,30.97
2023-03-19T01:04:20.359Z,26.20
2023-03-19T01:06:46.808Z,35.60
2023-03-19T01:09:13.308Z,35.77
2023-03-19T01:11:39.835Z,41.93
2023-03-19T01:14:06.543Z,33.30
2023-03-19T01:16:34.801Z,30.37
2023-03-19T01:19:02.245Z,35.77
2023-03-19T01:21:31.098Z,29.23
2023-03-19T01:23:58.347Z,33.27
2023-03-19T01:26:25.065Z,32.30
2023-03-19T01:28:51.531Z,31.73
2023-03-19T01:31:18.112Z,34.00
2023-03-19T01:33:44.645Z,37.57
2023-03-19T01:36:11.216Z,37.70
2023-03-19T01:38:38.005Z,30.00
2023-03-19T01:41:04.884Z,27.33
2023-03-19T01:43:32.726Z,32.37
2023-03-19T01:46:02.969Z,32.77
2023-03-19T01:48:36.773Z,34.10
2023-03-19T01:51:04.346Z,37.10
2023-03-19T01:53:33.183Z,34.53
2023-03-19T01:56:04.256Z,35.37
2023-03-19T01:58:31.015Z,32.03
2023-03-19T02:00:58.161Z,30.93
2023-03-19T02:03:25.331Z,33.20
2023-03-19T02:05:52.836Z,29.73
2023-03-19T02:08:22.854Z,37.10
2023-03-19T02:10:50.460Z,35.17
2023-03-19T02:13:17.039Z,36.00
2023-03-19T02:15:43.690Z,37.03
2023-03-19T02:18:10.635Z,35.57
2023-03-19T02:20:54.801Z,38.00
2023-03-19T02:23:32.711Z,36.17
2023-03-19T02:26:09.125Z,35.67
2023-03-19T02:28:39.252Z,31.80
2023-03-19T02:31:07.530Z,37.80
2023-03-19T02:33:34.485Z,31.83
2023-03-19T02:36:03.920Z,37.80
2023-03-19T02:38:33.536Z,36.10
2023-03-19T02:41:02.936Z,39.57
2023-03-19T02:43:31.712Z,34.40
2023-03-19T02:45:58.864Z,38.67
2023-03-19T02:48:25.542Z,35.73
2023-03-19T02:50:52.599Z,37.97
2023-03-19T02:53:19.302Z,30.50
2023-03-19T02:55:46.142Z,37.60
2023-03-19T02:58:12.789Z,31.50
2023-03-19T03:00:39.375Z,35.60
2023-03-19T03:03:07.596Z,36.30
2023-03-19T03:05:34.932Z,36.37
2023-03-19T03:08:01.792Z,32.50
2023-03-19T03:10:28.589Z,34.40
2023-03-19T03:12:55.183Z,38.40
2023-03-19T03:15:21.736Z,37.23
2023-03-19T03:17:48.466Z,34.27
2023-03-19T03:20:17.639Z,34.47
2023-03-19T03:22:44.629Z,36.60
2023-03-19T03:25:11.314Z,31.67
2023-03-19T03:27:38.161Z,34.17
2023-03-19T03:30:08.354Z,35.07
2023-03-19T03:32:36.880Z,36.13
2023-03-19T03:35:05.293Z,41.43
2023-03-19T03:37:31.839Z,33.50
2023-03-19T03:39:58.342Z,40.23
2023-03-19T03:42:24.804Z,36.03
2023-03-19T03:44:51.351Z,33.23
2023-03-19T03:47:17.990Z,37.87
2023-03-19T03:49:45.659Z,32.17
2023-03-19T03:52:12.384Z,36.10
2023-03-19T03:54:39.116Z,36.23
2023-03-19T03:57:06.094Z,32.00
2023-03-19T03:59:32.583Z,32.60
2023-03-19T04:01:59.147Z,33.70
2023-03-19T04:04:26.486Z,30.47
2023-03-19T04:06:52.981Z,33.50
2023-03-19T04:09:19.559Z,29.07
2023-03-19T04:11:46.760Z,29.50
2023-03-19T04:14:13.244Z,33.50
2023-03-19T04:16:39.994Z,33.87
2023-03-19T04:19:07.731Z,31.50
2023-03-19T04:21:35.187Z,32.10
2023-03-19T04:24:02.816Z,38.23
2023-03-19T04:26:29.427Z,36.07
2023-03-19T04:28:56.056Z,38.47
2023-03-19T04:31:22.828Z,31.97
2023-03-19T04:33:49.544Z,34.30
2023-03-19T04:36:17.922Z,29.97
2023-03-19T04:38:44.548Z,28.63
2023-03-19T04:41:11.016Z,28.63
2023-03-19T04:43:37.512Z,31.93
2023-03-19T04:46:04.420Z,33.17
2023-03-19T04:48:32.144Z,33.27
2023-03-19T04:50:58.706Z,34.80
2023-03-19T04:53:25.528Z,37.63
2023-03-19T04:55:52.117Z,34.57
2023-03-19T04:58:18.914Z,34.37
2023-03-19T05:00:47.478Z,32.83
2023-03-19T05:03:15.214Z,36.00
2023-03-19T05:05:42.180Z,28.77
2023-03-19T05:08:09.470Z,28.13
2023-03-19T05:10:37.428Z,33.60
2023-03-19T05:13:05.261Z,32.43
2023-03-19T05:15:32.092Z,36.70
2023-03-19T05:17:58.998Z,37.40
2023-03-19T05:20:25.633Z,30.50
2023-03-19T05:22:53.292Z,33.60
2023-03-19T05:25:19.871Z,33.93
2023-03-19T05:27:46.646Z,33.63
2023-03-19T05:30:13.316Z,33.93
2023-03-19T05:32:40.701Z,32.67
2023-03-19T05:35:07.838Z,34.00
2023-03-19T05:37:34.388Z,39.87
2023-03-19T05:40:00.915Z,41.60
2023-03-19T05:42:27.417Z,34.63
2023-03-19T05:44:54.216Z,34.17
2023-03-19T05:47:21.422Z,34.83
2023-03-19T05:49:47.987Z,32.63
2023-03-19T05:52:14.769Z,34.47
2023-03-19T05:54:41.630Z,28.63
2023-03-19T05:57:08.481Z,37.90
2023-03-19T05:59:35.899Z,26.93
2023-03-19T06:02:02.968Z,32.17
2023-03-19T06:04:29.450Z,32.33
2023-03-19T06:06:56.144Z,29.83
2023-03-19T06:09:22.687Z,33.83
2023-03-19T06:11:49.208Z,34.83
2023-03-19T06:14:16.105Z,36.53
2023-03-19T06:16:42.799Z,34.13
2023-03-19T06:19:09.471Z,34.63
2023-03-19T06:21:36.521Z,32.57
2023-03-19T06:24:04.110Z,35.40
2023-03-19T06:26:30.687Z,33.23
2023-03-19T06:28:57.429Z,32.60
2023-03-19T06:31:24.115Z,33.07
2023-03-19T06:33:50.912Z,32.83
2023-03-19T06:36:17.778Z,33.73
2023-03-19T06:38:44.365Z,39.90
2023-03-19T06:41:10.987Z,35.77
2023-03-19T06:43:37.669Z,32.70
2023-03-19T06:46:05.173Z,33.13
2023-03-19T06:48:32.130Z,27.93
2023-03-19T06:50:58.803Z,29.93
2023-03-19T06:53:25.465Z,33.77
2023-03-19T06:55:52.083Z,37.37
2023-03-19T06:58:18.659Z,30.63
2023-03-19T07:00:45.278Z,32.50
2023-03-19T07:03:12.278Z,32.40
2023-03-19T07:05:38.870Z,34.03
2023-03-19T07:08:11.694Z,33.27
2023-03-19T07:10:39.383Z,39.20
2023-03-19T07:13:06.478Z,29.27
2023-03-19T07:15:33.522Z,35.23
2023-03-19T07:18:00.312Z,29.80
2023-03-19T07:20:26.981Z,34.73
2023-03-19T07:22:54.135Z,31.20
2023-03-19T07:25:20.878Z,30.00
2023-03-19T07:27:47.601Z,29.13
2023-03-19T07:30:14.679Z,30.67
2023-03-19T07:32:41.323Z,34.03
2023-03-19T07:35:08.550Z,33.00
2023-03-19T07:37:35.082Z,31.57
2023-03-19T07:40:01.759Z,33.07
2023-03-19T07:42:28.328Z,32.27
2023-03-19T07:44:54.878Z,29.20
2023-03-19T07:47:28.842Z,35.43
2023-03-19T07:49:56.744Z,30.13
2023-03-19T07:52:24.023Z,28.30
2023-03-19T07:54:50.851Z,28.43
2023-03-19T07:57:17.482Z,33.87
2023-03-19T07:59:43.976Z,27.90
2023-03-19T08:02:12.229Z,25.80
2023-03-19T08:04:39.550Z,24.77
2023-03-19T08:07:06.964Z,27.20
2023-03-19T08:09:34.193Z,24.17
2023-03-19T08:12:00.889Z,27.67
2023-03-19T08:14:27.554Z,28.50
2023-03-19T08:16:54.186Z,27.73
2023-03-19T08:19:20.910Z,25.37
2023-03-19T08:21:47.565Z,27.55
2023-03-19T08:24:14.363Z,24.63
2023-03-19T08:26:41.189Z,28.77
2023-03-19T08:29:09.029Z,27.60
2023-03-19T08:31:35.681Z,25.90
2023-03-19T08:34:06.152Z,26.17
2023-03-19T08:36:32.744Z,30.43
2023-03-19T08:38:59.520Z,29.37
2023-03-19T08:41:26.140Z,24.87
2023-03-19T08:43:52.830Z,26.17
2023-03-19T08:46:19.604Z,24.17
2023-03-19T08:48:46.422Z,27.00
2023-03-19T08:51:13.089Z,23.33
2023-03-19T08:53:40.152Z,23.93
2023-03-19T08:56:10.454Z,23.73
2023-03-19T08:58:37.027Z,23.20
2023-03-19T09:01:08.840Z,43.77
2023-03-19T09:03:36.057Z,24.47
2023-03-19T09:06:04.543Z,20.10
2023-03-19T10:08:53.603Z,20.70
2023-03-19T10:11:50.370Z,19.80
2023-03-19T10:14:38.913Z,17.20
2023-03-19T10:17:07.362Z,18.80
2023-03-19T10:19:48.337Z,18.77
2023-03-19T10:22:37.232Z,18.60
2023-03-19T10:25:06.451Z,24.13
2023-03-19T10:27:33.056Z,24.67
2023-03-19T10:29:59.814Z,19.07
2023-03-19T10:32:39.716Z,21.27
2023-03-19T10:35:20.739Z,20.67
2023-03-19T10:37:49.012Z,20.17
2023-03-19T10:40:23.586Z,18.37
2023-03-19T10:43:01.897Z,20.80
2023-03-19T10:45:39.112Z,20.73
2023-03-19T10:48:06.269Z,17.77
2023-03-19T10:50:38.607Z,19.03
2023-03-19T10:53:29.500Z,17.00
2023-03-19T10:56:19.453Z,20.10
2023-03-19T10:58:59.159Z,16.10
2023-03-19T11:01:39.516Z,17.83
2023-03-19T11:04:17.684Z,18.67
2023-03-19T11:06:50.306Z,17.27
2023-03-19T11:09:24.393Z,20.37
2023-03-19T11:11:59.565Z,18.47
2023-03-19T11:14:31.982Z,21.83
2023-03-19T11:17:20.475Z,15.93
2023-03-19T11:19:55.018Z,15.50
2023-03-19T11:22:32.198Z,15.97
2023-03-19T11:25:23.692Z,20.23
2023-03-19T11:28:04.627Z,19.67
2023-03-19T11:30:40.740Z,19.30
2023-03-19T11:33:33.754Z,18.83
2023-03-19T11:36:29.137Z,15.17
2023-03-19T11:39:17.783Z,16.63
2023-03-19T11:41:53.208Z,17.97
2023-03-19T11:44:35.038Z,23.47
2023-03-19T11:47:26.472Z,16.53
2023-03-19T11:49:59.700Z,19.20
2023-03-19T11:52:35.462Z,19.10
2023-03-19T11:55:21.346Z,14.53
2023-03-19T11:57:57.732Z,17.63
2023-03-19T12:00:50.864Z,21.90
2023-03-19T12:03:28.968Z,16.17
2023-03-19T12:06:16.571Z,15.60
2023-03-19T12:08:47.716Z,18.87
2023-03-19T12:11:32.515Z,15.23
2023-03-19T12:14:04.415Z,18.73
2023-03-19T12:16:55.887Z,12.43
2023-03-19T12:19:41.485Z,19.63
2023-03-19T12:22:31.507Z,19.37
2023-03-19T12:25:17.148Z,20.87
2023-03-19T12:27:55.508Z,16.40
2023-03-19T12:30:22.100Z,14.13
2023-03-19T12:33:19.726Z,17.20
2023-03-19T12:35:50.005Z,18.23
2023-03-19T12:38:19.564Z,15.80
2023-03-19T12:40:52.666Z,13.13
2023-03-19T12:43:44.084Z,15.33
2023-03-19T12:46:16.595Z,16.43
2023-03-19T12:48:55.793Z,13.50
2023-03-19T12:51:26.590Z,16.60
2023-03-19T12:54:04.585Z,14.60
2023-03-19T12:56:40.290Z,14.83
2023-03-19T12:59:31.908Z,14.53
2023-03-19T13:02:23.767Z,16.73
2023-03-19T13:04:57.396Z,14.07
2023-03-19T13:07:32.215Z,16.30
2023-03-19T13:10:04.625Z,16.23
2023-03-19T13:12:33.954Z,16.33
2023-03-19T13:15:10.113Z,13.03
2023-03-19T13:17:42.680Z,12.37
2023-03-19T13:20:27.210Z,15.55
2023-03-19T13:22:57.530Z,13.50
2023-03-19T13:25:29.215Z,17.00
2023-03-19T13:27:56.002Z,14.50
2023-03-19T13:30:23.876Z,12.47
2023-03-19T13:32:54.285Z,20.00
2023-03-19T13:35:28.585Z,12.00
2023-03-19T13:38:00.232Z,11.50
2023-03-19T13:40:39.107Z,13.33
2023-03-19T13:43:28.065Z,16.27
2023-03-19T13:46:04.255Z,12.07
2023-03-19T13:48:37.577Z,15.33
2023-03-19T13:51:12.796Z,14.73
2023-03-19T13:54:04.268Z,20.10
2023-03-19T13:56:33.173Z,15.50
2023-03-19T13:59:15.061Z,14.33
2023-03-19T14:01:44.941Z,15.33
2023-03-19T14:04:20.602Z,11.87
2023-03-19T14:06:53.658Z,15.30
2023-03-19T14:09:38.205Z,16.20
2023-03-19T14:12:20.443Z,14.90
2023-03-19T14:14:50.415Z,15.73
2023-03-19T14:17:20.556Z,19.23
2023-03-19T14:19:47.164Z,17.47
2023-03-19T14:22:16.378Z,14.73
2023-03-19T14:24:57.094Z,14.70
2023-03-19T14:27:30.484Z,17.53
2023-03-19T14:30:00.810Z,17.10
2023-03-19T14:32:33.393Z,17.97
2023-03-19T14:35:00.977Z,14.33
2023-03-19T14:37:34.621Z,15.73
2023-03-19T14:40:16.870Z,15.07
2023-03-19T14:43:21.912Z,16.30
2023-03-19T14:45:55.575Z,14.93
2023-03-19T14:48:59.491Z,11.43
2023-03-19T14:51:53.599Z,12.13
2023-03-19T14:54:30.324Z,14.90
2023-03-19T14:56:57.744Z,14.33
2023-03-19T14:59:24.452Z,14.10
2023-03-19T15:01:53.031Z,16.83
2023-03-19T15:04:22.620Z,13.80
2023-03-19T15:06:55.230Z,14.53
2023-03-19T15:09:29.878Z,11.63
2023-03-19T15:12:20.637Z,15.10
2023-03-19T15:15:10.093Z,16.00
2023-03-19T15:17:39.632Z,13.97
2023-03-19T15:20:24.173Z,12.87
2023-03-19T15:22:54.702Z,14.17
2023-03-19T15:25:21.642Z,16.57
2023-03-19T15:28:05.748Z,13.00
2023-03-19T15:30:32.916Z,16.80
2023-03-19T15:33:13.927Z,20.57
2023-03-19T15:35:44.178Z,14.73
2023-03-19T15:38:13.536Z,14.23
2023-03-19T15:40:41.496Z,14.97
2023-03-19T15:43:11.489Z,16.37
2023-03-19T15:45:38.527Z,13.87
2023-03-19T15:48:32.871Z,13.50
2023-03-19T15:51:02.775Z,16.57
2023-03-19T15:53:31.770Z,15.97
2023-03-19T15:56:01.211Z,19.00
2023-03-19T15:58:30.822Z,18.53
2023-03-19T16:00:59.480Z,17.57
2023-03-19T16:03:33.041Z,19.23
2023-03-19T16:06:27.052Z,16.90
2023-03-19T16:08:55.457Z,15.30
2023-03-19T16:11:34.294Z,14.53
2023-03-19T16:14:21.418Z,15.37
2023-03-19T16:16:48.852Z,21.77
2023-03-19T16:19:39.294Z,16.97
2023-03-19T16:22:17.386Z,18.10
2023-03-19T16:24:46.414Z,16.57
2023-03-19T16:27:18.285Z,20.80
2023-03-19T16:29:46.949Z,20.00
2023-03-19T16:32:23.603Z,23.93
2023-03-19T16:35:15.885Z,27.47
2023-03-19T16:37:47.771Z,27.23
2023-03-19T16:40:15.521Z,26.23
2023-03-19T16:42:45.755Z,28.77
2023-03-19T16:45:15.334Z,27.10
2023-03-19T16:47:49.922Z,32.90
2023-03-19T16:50:18.082Z,34.37
2023-03-19T16:52:45.746Z,50.43
2023-03-19T16:55:28.306Z,132.23
2023-03-19T16:58:20.275Z,143.27
2023-03-19T17:00:47.399Z,118.70
2023-03-19T17:03:16.283Z,106.90
2023-03-19T17:05:44.085Z,77.13
2023-03-19T17:08:11.654Z,67.23
2023-03-19T17:10:42.190Z,75.18
2023-03-19T17:13:23.444Z,68.57
2023-03-19T17:15:50.808Z,72.80
2023-03-19T17:18:21.191Z,74.67
2023-03-19T17:20:52.850Z,65.37
2023-03-19T17:23:19.712Z,67.77
2023-03-19T17:25:46.398Z,69.27
2023-03-19T17:28:12.859Z,60.53
2023-03-19T17:30:39.575Z,47.90
2023-03-19T17:33:06.203Z,41.40
2023-03-19T17:35:34.221Z,46.87
2023-03-19T17:38:01.206Z,43.23
2023-03-19T17:40:28.010Z,36.20
2023-03-19T17:42:55.752Z,40.10
2023-03-19T17:45:27.770Z,41.00
2023-03-19T17:47:56.568Z,48.50
2023-03-19T17:50:28.322Z,48.57
2023-03-19T17:52:55.086Z,52.93
2023-03-19T17:55:24.637Z,52.77
2023-03-19T17:57:51.603Z,46.33
2023-03-19T18:00:20.333Z,47.43
2023-03-19T18:02:48.206Z,45.10
2023-03-19T18:05:16.660Z,53.20
2023-03-19T18:07:44.943Z,44.10
2023-03-19T18:10:26.717Z,46.00
2023-03-19T18:12:54.595Z,368.87
2023-03-19T18:15:21.828Z,158.77
2023-03-19T18:17:54.489Z,102.87
2023-03-19T18:20:23.117Z,49.97
2023-03-19T18:22:50.067Z,52.50
2023-03-19T18:25:20.225Z,44.67
2023-03-19T18:27:51.457Z,46.17
2023-03-19T18:30:20.646Z,42.97
2023-03-19T18:32:54.287Z,50.47
2023-03-19T18:35:23.240Z,54.93
2023-03-19T18:37:51.203Z,54.90
2023-03-19T18:40:25.672Z,58.83
2023-03-19T18:42:52.708Z,65.40
2023-03-19T18:45:19.751Z,56.90
2023-03-19T18:47:48.192Z,76.10
2023-03-19T18:50:26.288Z,82.83
2023-03-19T18:52:53.706Z,75.67
2023-03-19T18:55:20.980Z,68.23
2023-03-19T18:57:59.618Z,72.57
2023-03-19T19:00:37.730Z,72.13
2023-03-19T19:03:05.427Z,68.07
2023-03-19T19:05:32.948Z,60.57
2023-03-19T19:08:04.449Z,41.40
2023-03-19T19:10:42.368Z,46.83
2023-03-19T19:13:15.993Z,54.67
2023-03-19T19:15:42.499Z,46.77
2023-03-19T19:18:20.650Z,45.80
2023-03-19T19:20:49.337Z,47.23
2023-03-19T19:23:16.361Z,59.40
2023-03-19T19:25:45.433Z,55.83
2023-03-19T19:28:19.248Z,48.63
2023-03-19T19:30:46.241Z,48.60
2023-03-19T19:33:17.851Z,43.20
2023-03-19T19:35:44.964Z,41.67
2023-03-19T19:38:12.964Z,48.27
2023-03-19T19:40:43.615Z,51.20
2023-03-19T19:43:19.479Z,53.33
2023-03-19T19:45:48.058Z,47.97
2023-03-19T19:48:17.444Z,43.17
2023-03-19T19:50:45.132Z,42.30
2023-03-19T19:53:12.341Z,40.87
2023-03-19T19:55:39.172Z,38.83
2023-03-19T19:58:08.528Z,74.70
2023-03-19T20:00:35.252Z,54.73
2023-03-19T20:03:01.815Z,48.27
2023-03-19T20:05:31.303Z,41.03
2023-03-19T20:08:00.686Z,38.27
2023-03-19T20:10:29.658Z,33.97
2023-03-19T20:12:58.857Z,34.80
2023-03-19T20:15:36.833Z,38.17
2023-03-19T20:18:05.283Z,32.37
2023-03-19T20:20:33.076Z,41.30
2023-03-19T20:23:02.315Z,28.50
2023-03-19T20:25:32.464Z,35.20
2023-03-19T20:28:00.585Z,31.97
2023-03-19T20:30:28.943Z,31.50
2023-03-19T20:32:56.573Z,33.00
2023-03-19T20:35:28.501Z,34.17
2023-03-19T20:37:56.602Z,33.67
2023-03-19T20:40:26.398Z,35.37
2023-03-19T20:42:52.948Z,34.57
2023-03-19T20:45:21.912Z,34.07
2023-03-19T20:47:49.150Z,34.23
2023-03-19T20:50:26.371Z,36.83
2023-03-19T20:52:52.991Z,35.23
2023-03-19T20:55:21.832Z,35.77
2023-03-19T20:57:50.051Z,43.77
2023-03-19T21:00:28.326Z,39.33
2023-03-19T21:02:58.532Z,38.13
2023-03-19T21:05:30.483Z,39.47
2023-03-19T21:07:57.051Z,40.73
2023-03-19T21:10:39.485Z,41.00
2023-03-19T21:13:06.951Z,40.03
2023-03-19T21:15:33.959Z,46.07
2023-03-19T21:18:00.820Z,37.77
2023-03-19T21:20:28.971Z,41.93
2023-03-19T21:23:19.446Z,35.50
2023-03-19T21:25:46.435Z,36.30
2023-03-19T21:28:33.471Z,42.50
2023-03-19T21:31:00.532Z,42.97
2023-03-19T21:33:29.832Z,35.63
2023-03-19T21:35:57.442Z,39.50
2023-03-19T21:38:24.473Z,48.13
2023-03-19T21:40:52.819Z,40.27
2023-03-19T21:43:22.669Z,41.93
2023-03-19T21:45:52.576Z,41.57
2023-03-19T21:48:25.239Z,57.07
2023-03-19T21:50:52.142Z,43.70
2023-03-19T21:53:19.531Z,39.47
2023-03-19T21:55:46.296Z,42.87
2023-03-19T21:58:14.419Z,42.23
2023-03-19T22:00:41.654Z,42.17
2023-03-19T22:03:15.024Z,36.17
2023-03-19T22:05:41.755Z,45.70
2023-03-19T22:08:08.755Z,51.07
2023-03-19T22:10:35.531Z,45.87
2023-03-19T22:13:02.888Z,46.00
2023-03-19T22:15:37.670Z,45.87
2023-03-19T22:18:06.962Z,46.90
2023-03-19T22:20:33.680Z,44.10
2023-03-19T22:23:00.558Z,43.30
2023-03-19T22:25:31.732Z,42.03
2023-03-19T22:27:58.381Z,40.63
2023-03-19T22:30:36.285Z,51.73
2023-03-19T22:33:14.475Z,46.20
2023-03-19T22:35:41.657Z,46.33
2023-03-19T22:38:08.195Z,46.20
2023-03-19T22:40:34.972Z,41.80
2023-03-19T22:43:01.632Z,43.50
2023-03-19T22:45:31.136Z,42.80
2023-03-19T22:47:58.292Z,42.73
2023-03-19T22:50:27.781Z,40.73
2023-03-19T22:52:54.882Z,48.70
2023-03-19T22:55:21.570Z,46.30
2023-03-19T22:57:48.576Z,43.97
2023-03-19T23:00:21.092Z,46.73
2023-03-19T23:02:54.709Z,45.17
2023-03-19T23:05:25.896Z,47.00
2023-03-19T23:07:53.443Z,44.67
2023-03-19T23:10:21.395Z,45.87
2023-03-19T23:12:48.159Z,46.97
2023-03-19T23:15:14.820Z,46.83
2023-03-19T23:17:42.178Z,44.87
2023-03-19T23:20:17.814Z,46.17
2023-03-19T23:22:45.714Z,46.80
2023-03-19T23:25:18.127Z,52.60
2023-03-19T23:27:45.631Z,47.20
2023-03-19T23:30:32.070Z,45.33
2023-03-19T23:33:01.590Z,44.57
2023-03-19T23:35:30.507Z,41.13
2023-03-19T23:37:57.496Z,46.40
2023-03-19T23:40:31.280Z,50.63
2023-03-19T23:42:58.663Z,51.37
2023-03-19T23:45:25.024Z,50.30
2023-03-19T23:47:51.566Z,45.80
2023-03-19T23:50:18.323Z,51.53
2023-03-19T23:52:44.911Z,47.70
2023-03-19T23:55:11.643Z,47.60
2023-03-19T23:57:38.791Z,49.20
